createdAt,value
2023-04-09T00:01:14.364Z,31.33
2023-04-09T00:03:46.087Z,31.77
2023-04-09T00:06:16.729Z,31.47
2023-04-09T00:08:49.397Z,34.20
2023-04-09T00:11:20.938Z,30.17
2023-04-09T00:13:51.493Z,35.52
2023-04-09T00:16:22.346Z,35.68
2023-04-09T00:18:53.110Z,35.10
2023-04-09T00:21:24.360Z,32.27
2023-04-09T00:23:54.816Z,36.83
2023-04-09T00:26:25.921Z,36.87
2023-04-09T00:28:56.503Z,36.77
2023-04-09T00:31:27.087Z,39.63
2023-04-09T00:33:57.704Z,38.63
2023-04-09T00:36:28.384Z,37.60
2023-04-09T00:39:00.860Z,34.85
2023-04-09T00:41:32.956Z,37.67
2023-04-09T00:44:03.993Z,36.23
2023-04-09T00:46:34.582Z,36.67
2023-04-09T00:49:05.348Z,37.15
2023-04-09T00:51:38.828Z,38.00
2023-04-09T00:54:11.694Z,38.33
2023-04-09T00:56:43.244Z,38.00
2023-04-09T00:59:16.021Z,36.67
2023-04-09T01:01:46.566Z,35.70
2023-04-09T01:04:17.244Z,36.93
2023-04-09T01:06:54.062Z,37.50
2023-04-09T01:09:37.002Z,37.78
2023-04-09T01:12:21.526Z,40.20
2023-04-09T01:15:12.419Z,37.70
2023-04-09T01:17:48.868Z,39.30
2023-04-09T01:20:25.364Z,37.57
2023-04-09T01:23:04.131Z,38.37
2023-04-09T01:25:46.358Z,38.40
2023-04-09T01:28:28.487Z,39.97
2023-04-09T01:31:02.554Z,39.20
2023-04-09T01:33:33.434Z,40.98
2023-04-09T01:36:05.941Z,39.08
2023-04-09T01:38:43.882Z,39.43
2023-04-09T01:41:17.813Z,38.97
2023-04-09T01:43:50.131Z,38.93
2023-04-09T01:46:24.117Z,37.50
2023-04-09T01:48:56.227Z,36.13
2023-04-09T01:51:27.895Z,37.58
2023-04-09T01:53:59.209Z,39.37
2023-04-09T01:56:42.386Z,34.18
2023-04-09T01:59:13.669Z,37.33
2023-04-09T02:01:50.225Z,38.35
2023-04-09T02:04:27.003Z,38.13
2023-04-09T02:07:06.535Z,41.33
2023-04-09T02:09:40.734Z,39.53
2023-04-09T02:12:16.346Z,38.40
2023-04-09T02:14:50.264Z,41.17
2023-04-09T02:17:23.618Z,38.67
2023-04-09T02:19:54.344Z,41.30
2023-04-09T02:22:24.863Z,36.80
2023-04-09T02:24:55.661Z,38.20
2023-04-09T02:27:26.331Z,39.30
2023-04-09T02:29:56.848Z,39.43
2023-04-09T02:32:27.552Z,41.05
2023-04-09T02:34:58.075Z,38.85
2023-04-09T02:37:28.558Z,38.03
2023-04-09T02:39:59.122Z,37.67
2023-04-09T02:42:29.567Z,37.33
2023-04-09T02:45:00.070Z,39.77
2023-04-09T02:47:30.807Z,38.50
2023-04-09T02:50:01.445Z,37.93
2023-04-09T02:52:31.964Z,43.90
2023-04-09T02:55:02.663Z,38.43
2023-04-09T02:57:33.793Z,39.73
2023-04-09T03:00:06.229Z,38.50
2023-04-09T03:02:36.802Z,40.90
2023-04-09T03:05:08.422Z,40.47
2023-04-09T03:07:38.931Z,42.03
2023-04-09T03:10:10.359Z,40.33
2023-04-09T03:12:44.204Z,39.73
2023-04-09T03:15:15.273Z,41.43
2023-04-09T03:17:45.985Z,43.30
2023-04-09T03:20:16.708Z,39.70
2023-04-09T03:22:49.007Z,41.43
2023-04-09T03:25:21.399Z,37.47
2023-04-09T03:27:51.773Z,40.73
2023-04-09T03:30:22.327Z,40.70
2023-04-09T03:32:52.876Z,42.13
2023-04-09T03:35:23.619Z,41.77
2023-04-09T03:37:54.108Z,43.20
2023-04-09T03:40:24.611Z,44.77
2023-04-09T03:42:55.242Z,46.67
2023-04-09T03:45:28.556Z,42.30
2023-04-09T03:47:59.261Z,42.17
2023-04-09T03:50:29.733Z,43.87
2023-04-09T03:53:00.204Z,48.30
2023-04-09T03:55:30.841Z,43.43
2023-04-09T03:58:01.376Z,46.87
2023-04-09T04:00:32.014Z,46.13
2023-04-09T04:03:02.689Z,48.17
2023-04-09T04:05:33.562Z,55.73
2023-04-09T04:08:04.004Z,53.60
2023-04-09T04:10:36.084Z,50.13
2023-04-09T04:13:12.127Z,48.17
2023-04-09T04:15:43.313Z,50.47
2023-04-09T04:18:15.484Z,47.77
2023-04-09T04:20:46.780Z,50.33
2023-04-09T04:23:19.490Z,52.40
2023-04-09T04:25:50.755Z,55.57
2023-04-09T04:28:21.255Z,55.40
2023-04-09T04:30:53.093Z,50.63
2023-04-09T04:33:23.794Z,57.60
2023-04-09T04:35:54.453Z,52.23
2023-04-09T04:38:25.603Z,56.20
2023-04-09T04:40:57.650Z,54.97
2023-04-09T04:43:29.285Z,44.63
2023-04-09T04:45:59.873Z,47.07
2023-04-09T04:48:31.992Z,50.13
2023-04-09T04:51:03.619Z,47.77
2023-04-09T04:53:34.457Z,50.83
2023-04-09T04:56:05.325Z,46.33
2023-04-09T04:58:35.778Z,46.47
2023-04-09T05:01:06.511Z,49.07
2023-04-09T05:03:37.282Z,46.85
2023-04-09T05:06:08.120Z,46.43
2023-04-09T05:08:38.638Z,54.73
2023-04-09T05:11:15.114Z,40.67
2023-04-09T05:13:46.566Z,49.90
2023-04-09T05:16:23.177Z,47.00
2023-04-09T05:18:55.362Z,48.00
2023-04-09T05:21:29.032Z,46.00
2023-04-09T05:23:59.943Z,42.20
2023-04-09T05:26:30.768Z,41.87
2023-04-09T05:29:01.344Z,44.48
2023-04-09T05:31:31.972Z,46.57
2023-04-09T05:34:02.613Z,42.57
2023-04-09T05:36:33.657Z,40.63
2023-04-09T05:39:04.346Z,43.70
2023-04-09T05:41:36.695Z,44.93
2023-04-09T05:44:07.276Z,46.67
2023-04-09T05:46:38.382Z,45.50
2023-04-09T05:49:08.885Z,45.00
2023-04-09T05:51:39.488Z,40.20
2023-04-09T05:54:10.702Z,42.08
2023-04-09T05:56:41.378Z,46.73
2023-04-09T05:59:12.047Z,45.03
2023-04-09T06:01:42.728Z,43.90
2023-04-09T06:04:14.100Z,46.60
2023-04-09T06:06:45.806Z,50.70
2023-04-09T06:09:16.340Z,48.30
2023-04-09T06:11:46.884Z,42.20
2023-04-09T06:14:21.419Z,38.33
2023-04-09T06:16:52.585Z,38.42
2023-04-09T06:19:23.842Z,36.73
2023-04-09T06:21:54.462Z,37.40
2023-04-09T06:24:26.803Z,34.87
2023-04-09T06:26:57.320Z,38.77
2023-04-09T06:29:28.032Z,37.67
2023-04-09T06:31:58.564Z,36.40
2023-04-09T06:37:20.440Z,36.43
2023-04-09T06:40:00.418Z,36.05
2023-04-09T06:42:24.468Z,36.40
2023-04-09T06:44:55.198Z,35.83
2023-04-09T06:47:27.422Z,35.85
2023-04-09T06:49:57.959Z,38.42
2023-04-09T06:52:28.487Z,35.43
2023-04-09T06:54:59.457Z,40.50
2023-04-09T06:57:29.920Z,36.90
2023-04-09T07:00:00.549Z,36.30
2023-04-09T07:02:31.598Z,37.23
2023-04-09T07:05:03.086Z,35.57
2023-04-09T07:07:33.877Z,37.53
2023-04-09T07:10:04.481Z,36.60
2023-04-09T07:12:36.051Z,39.70
2023-04-09T07:15:08.086Z,36.70
2023-04-09T07:17:38.820Z,39.73
2023-04-09T07:20:10.474Z,38.08
2023-04-09T07:22:43.109Z,35.65
2023-04-09T07:25:13.536Z,34.95
2023-04-09T07:27:45.218Z,40.17
2023-04-09T07:30:17.447Z,38.37
2023-04-09T07:32:47.979Z,38.88
2023-04-09T07:35:19.166Z,33.90
2023-04-09T07:37:52.309Z,35.50
2023-04-09T07:40:22.922Z,35.23
2023-04-09T07:42:54.063Z,34.78
2023-04-09T07:45:24.691Z,36.50
2023-04-09T07:47:56.675Z,37.10
2023-04-09T07:50:27.277Z,36.65
2023-04-09T07:52:57.993Z,37.45
2023-04-09T07:55:28.480Z,40.60
2023-04-09T07:57:59.600Z,40.13
2023-04-09T08:00:31.587Z,39.80
2023-04-09T08:03:03.844Z,34.40
2023-04-09T08:05:36.531Z,33.98
2023-04-09T08:08:07.373Z,34.63
2023-04-09T08:10:39.591Z,38.67
2023-04-09T08:13:12.095Z,36.87
2023-04-09T08:15:43.263Z,37.53
2023-04-09T08:18:13.869Z,35.43
2023-04-09T08:20:45.589Z,39.13
2023-04-09T08:23:16.500Z,36.28
2023-04-09T08:25:47.031Z,38.73
2023-04-09T08:28:19.133Z,38.80
2023-04-09T08:30:50.100Z,39.57
2023-04-09T08:33:22.624Z,36.80
2023-04-09T08:35:54.532Z,39.20
2023-04-09T08:38:26.878Z,35.48
2023-04-09T08:40:57.585Z,37.83
2023-04-09T08:43:52.558Z,36.23
2023-04-09T08:46:03.730Z,33.85
2023-04-09T08:48:35.099Z,34.95
2023-04-09T08:51:06.847Z,35.83
2023-04-09T08:53:38.946Z,35.68
2023-04-09T08:56:10.652Z,35.55
2023-04-09T08:58:46.537Z,36.13
2023-04-09T09:01:29.079Z,33.63
2023-04-09T09:04:08.372Z,33.95
2023-04-09T09:06:42.243Z,35.65
2023-04-09T09:09:17.501Z,33.92
2023-04-09T09:11:51.284Z,34.27
2023-04-09T09:14:21.843Z,32.13
2023-04-09T09:17:03.689Z,33.42
2023-04-09T09:19:35.803Z,35.95
2023-04-09T09:22:13.855Z,34.05
2023-04-09T09:24:50.361Z,30.20
2023-04-09T09:27:37.822Z,36.00
2023-04-09T09:30:10.468Z,31.20
2023-04-09T09:32:42.555Z,33.13
2023-04-09T09:35:13.299Z,31.17
2023-04-09T09:37:43.985Z,31.27
2023-04-09T09:40:18.613Z,32.48
2023-04-09T09:43:00.622Z,30.85
2023-04-09T09:45:33.239Z,33.02
2023-04-09T09:48:04.243Z,34.48
2023-04-09T09:50:38.219Z,33.45
2023-04-09T09:53:10.596Z,29.48
2023-04-09T09:55:44.824Z,35.10
2023-04-09T09:58:27.060Z,31.05
2023-04-09T10:00:58.814Z,30.10
2023-04-09T10:03:34.439Z,29.92
2023-04-09T10:06:05.042Z,30.05
2023-04-09T10:08:38.032Z,29.98
2023-04-09T10:11:08.968Z,28.62
2023-04-09T10:13:45.551Z,30.77
2023-04-09T10:16:17.366Z,27.30
2023-04-09T10:18:48.071Z,30.55
2023-04-09T10:21:38.352Z,28.40
2023-04-09T10:24:10.598Z,29.45
2023-04-09T10:26:45.188Z,30.40
2023-04-09T10:29:18.396Z,27.95
2023-04-09T10:31:57.568Z,30.97
2023-04-09T10:34:29.356Z,28.20
2023-04-09T10:37:00.892Z,31.02
2023-04-09T10:39:34.689Z,30.35
2023-04-09T10:42:08.934Z,29.32
2023-04-09T10:44:44.440Z,27.20
2023-04-09T10:47:18.014Z,27.52
2023-04-09T10:49:50.251Z,25.88
2023-04-09T10:52:24.510Z,26.90
2023-04-09T10:54:55.095Z,29.15
2023-04-09T10:57:26.468Z,29.32
2023-04-09T10:59:57.063Z,25.62
2023-04-09T11:02:42.855Z,27.75
2023-04-09T11:05:22.314Z,28.75
2023-04-09T11:08:10.641Z,26.07
2023-04-09T11:10:44.467Z,27.48
2023-04-09T11:13:16.936Z,27.82
2023-04-09T11:15:48.128Z,27.30
2023-04-09T11:18:28.342Z,24.65
2023-04-09T11:21:01.564Z,26.62
2023-04-09T11:23:33.932Z,24.95
2023-04-09T11:26:05.365Z,23.60
2023-04-09T11:28:36.417Z,26.90
2023-04-09T11:31:08.273Z,24.18
2023-04-09T11:33:38.993Z,24.65
2023-04-09T11:36:09.709Z,25.52
2023-04-09T11:38:40.281Z,24.75
2023-04-09T11:41:12.765Z,26.85
2023-04-09T11:43:43.413Z,24.92
2023-04-09T11:46:14.199Z,23.60
2023-04-09T11:48:45.621Z,23.85
2023-04-09T11:51:16.471Z,23.77
2023-04-09T11:53:48.488Z,25.65
2023-04-09T11:56:19.049Z,25.70
2023-04-09T11:58:50.564Z,24.72
2023-04-09T12:01:23.057Z,27.20
2023-04-09T12:04:01.284Z,21.33
2023-04-09T12:06:32.073Z,25.10
2023-04-09T12:09:06.000Z,26.15
2023-04-09T12:11:38.462Z,23.83
2023-04-09T12:14:10.891Z,22.87
2023-04-09T12:16:43.257Z,26.57
2023-04-09T12:19:15.644Z,21.97
2023-04-09T12:21:58.344Z,21.73
2023-04-09T12:24:28.925Z,20.27
2023-04-09T12:26:59.472Z,22.55
2023-04-09T12:29:30.567Z,23.52
2023-04-09T12:32:01.736Z,23.00
2023-04-09T12:34:33.670Z,23.52
2023-04-09T12:37:04.964Z,22.40
2023-04-09T12:39:35.642Z,24.07
2023-04-09T12:42:06.139Z,22.50
2023-04-09T12:44:37.324Z,23.25
2023-04-09T12:47:08.623Z,23.57
2023-04-09T12:49:42.449Z,23.18
2023-04-09T12:52:13.646Z,23.20
2023-04-09T12:54:45.206Z,22.55
2023-04-09T12:57:16.292Z,23.67
2023-04-09T12:59:48.051Z,23.00
2023-04-09T13:02:18.906Z,22.37
2023-04-09T13:04:51.393Z,22.98
2023-04-09T13:07:22.862Z,23.40
2023-04-09T13:09:53.632Z,24.55
2023-04-09T13:12:25.451Z,24.40
2023-04-09T13:14:59.573Z,21.27
2023-04-09T13:17:30.275Z,24.18
2023-04-09T13:20:01.653Z,24.25
2023-04-09T13:22:32.331Z,22.27
2023-04-09T13:25:03.062Z,23.73
2023-04-09T13:27:33.587Z,22.67
2023-04-09T13:30:04.241Z,25.15
2023-04-09T13:32:36.078Z,24.18
2023-04-09T13:35:08.015Z,22.82
2023-04-09T13:37:38.738Z,22.25
2023-04-09T13:40:10.256Z,20.97
2023-04-09T13:42:41.155Z,21.07
2023-04-09T13:45:13.080Z,24.63
2023-04-09T13:47:43.619Z,24.92
2023-04-09T13:50:14.212Z,21.50
2023-04-09T13:52:44.898Z,22.77
2023-04-09T13:55:16.142Z,22.58
2023-04-09T13:57:46.941Z,21.57
2023-04-09T14:00:19.334Z,23.10
2023-04-09T14:02:50.073Z,20.75
2023-04-09T14:05:20.942Z,25.88
2023-04-09T14:07:51.694Z,21.85
2023-04-09T14:10:23.260Z,22.82
2023-04-09T14:12:54.268Z,24.35
2023-04-09T14:15:25.016Z,22.42
2023-04-09T14:17:55.619Z,21.40
2023-04-09T14:20:26.581Z,23.10
2023-04-09T14:22:57.335Z,21.50
2023-04-09T14:25:27.960Z,20.90
2023-04-09T14:27:59.128Z,20.32
2023-04-09T14:30:30.500Z,22.75
2023-04-09T14:33:04.270Z,21.77
2023-04-09T14:35:36.461Z,20.95
2023-04-09T14:38:07.613Z,18.73
2023-04-09T14:40:40.272Z,22.40
2023-04-09T14:43:11.275Z,24.50
2023-04-09T14:45:43.509Z,21.97
2023-04-09T14:48:14.137Z,21.87
2023-04-09T14:50:45.459Z,22.42
2023-04-09T14:53:17.017Z,20.97
2023-04-09T14:55:47.466Z,22.95
2023-04-09T14:58:18.224Z,22.32
2023-04-09T15:00:48.901Z,23.22
2023-04-09T15:03:19.878Z,22.27
2023-04-09T15:05:53.298Z,21.82
2023-04-09T15:08:23.993Z,21.50
2023-04-09T15:10:56.092Z,21.93
2023-04-09T15:13:26.665Z,22.32
2023-04-09T15:15:59.878Z,22.37
2023-04-09T15:18:30.520Z,23.05
2023-04-09T15:21:02.420Z,21.02
2023-04-09T15:23:34.599Z,22.25
2023-04-09T15:26:06.735Z,23.83
2023-04-09T15:28:37.352Z,22.48
2023-04-09T15:31:08.252Z,23.15
2023-04-09T15:33:39.085Z,21.23
2023-04-09T15:36:11.023Z,22.07
2023-04-09T15:38:41.916Z,21.95
2023-04-09T15:41:12.520Z,20.62
2023-04-09T15:43:43.971Z,20.62
2023-04-09T15:46:16.407Z,25.35
2023-04-09T15:48:48.576Z,23.90
2023-04-09T15:51:19.381Z,20.82
2023-04-09T15:53:49.951Z,20.37
2023-04-09T15:56:20.746Z,20.82
2023-04-09T15:58:51.534Z,20.15
2023-04-09T16:01:22.633Z,18.37
2023-04-09T16:03:56.105Z,18.20
2023-04-09T16:06:29.604Z,18.40
2023-04-09T16:09:00.438Z,19.15
2023-04-09T16:11:31.958Z,16.48
2023-04-09T16:14:03.846Z,17.02
2023-04-09T16:16:34.709Z,16.65
2023-04-09T16:19:05.459Z,15.60
2023-04-09T16:21:36.839Z,16.52
2023-04-09T16:24:07.993Z,16.00
2023-04-09T16:26:40.848Z,14.78
2023-04-09T16:29:13.254Z,13.72
2023-04-09T16:31:45.024Z,14.60
2023-04-09T16:34:18.100Z,14.50
2023-04-09T16:36:51.556Z,15.68
2023-04-09T16:39:22.977Z,13.30
2023-04-09T16:41:54.632Z,14.40
2023-04-09T16:44:28.693Z,15.00
2023-04-09T16:47:01.116Z,16.65
2023-04-09T16:49:31.850Z,15.05
2023-04-09T16:52:09.300Z,18.55
2023-04-09T16:54:36.114Z,15.48
2023-04-09T16:57:07.335Z,16.02
2023-04-09T16:59:37.842Z,18.40
2023-04-09T17:02:08.645Z,16.77
2023-04-09T17:04:41.117Z,18.17
2023-04-09T17:07:13.245Z,18.70
2023-04-09T17:09:44.228Z,16.73
2023-04-09T17:12:15.271Z,19.20
2023-04-09T17:14:45.953Z,19.90
2023-04-09T17:17:17.269Z,20.17
2023-04-09T17:19:48.035Z,18.75
2023-04-09T17:22:18.972Z,19.27
2023-04-09T17:24:49.630Z,20.25
2023-04-09T17:27:20.650Z,19.77
2023-04-09T17:29:53.857Z,20.08
2023-04-09T17:32:25.975Z,21.10
2023-04-09T17:34:56.609Z,19.75
2023-04-09T17:37:28.947Z,18.65
2023-04-09T17:40:00.686Z,19.60
2023-04-09T17:42:31.476Z,20.43
2023-04-09T17:45:02.137Z,22.95
2023-04-09T17:47:32.920Z,20.10
2023-04-09T17:50:04.725Z,23.45
2023-04-09T17:52:39.648Z,22.65
2023-04-09T17:55:14.764Z,20.62
2023-04-09T17:57:48.164Z,21.42
2023-04-09T18:00:19.409Z,22.98
2023-04-09T18:02:54.199Z,22.30
2023-04-09T18:05:26.059Z,23.90
2023-04-09T18:07:57.289Z,20.92
2023-04-09T18:10:27.796Z,21.90
2023-04-09T18:12:59.831Z,24.32
2023-04-09T18:15:32.416Z,23.45
2023-04-09T18:18:03.034Z,27.00
2023-04-09T18:20:33.897Z,22.40
2023-04-09T18:23:04.722Z,27.02
2023-04-09T18:25:35.266Z,24.67
2023-04-09T18:28:06.167Z,35.73
2023-04-09T18:30:38.762Z,31.93
2023-04-09T18:33:09.825Z,30.70
2023-04-09T18:35:40.513Z,30.15
2023-04-09T18:38:11.257Z,28.87
2023-04-09T18:40:43.818Z,28.75
2023-04-09T18:43:20.530Z,28.83
2023-04-09T18:45:51.424Z,29.25
2023-04-09T18:48:23.459Z,31.52
2023-04-09T18:50:54.004Z,33.92
2023-04-09T18:53:26.233Z,36.77
2023-04-09T18:55:58.269Z,33.92
2023-04-09T18:58:28.825Z,36.15
2023-04-09T19:01:00.994Z,34.13
2023-04-09T19:03:32.406Z,36.55
2023-04-09T19:06:03.099Z,34.45
2023-04-09T19:08:37.133Z,30.68
2023-04-09T19:11:08.241Z,31.87
2023-04-09T19:13:39.702Z,32.38
2023-04-09T19:16:12.746Z,32.60
2023-04-09T19:18:42.469Z,34.85
2023-04-09T19:21:13.285Z,36.80
2023-04-09T19:23:45.440Z,36.83
2023-04-09T19:26:16.120Z,35.10
2023-04-09T19:28:46.860Z,38.98
2023-04-09T19:31:17.748Z,35.80
2023-04-09T19:33:48.266Z,34.25
2023-04-09T19:36:19.121Z,34.30
2023-04-09T19:38:50.699Z,39.38
2023-04-09T19:41:21.437Z,31.65
2023-04-09T19:43:52.326Z,34.85
2023-04-09T19:46:22.849Z,34.08
2023-04-09T19:48:53.645Z,34.38
2023-04-09T19:51:24.368Z,32.90
2023-04-09T19:53:54.946Z,37.00
2023-04-09T19:56:26.877Z,38.65
2023-04-09T19:58:58.443Z,35.17
2023-04-09T20:01:29.181Z,36.53
2023-04-09T20:04:01.006Z,34.78
2023-04-09T20:06:33.353Z,35.03
2023-04-09T20:09:07.842Z,35.78
2023-04-09T20:11:37.948Z,34.53
2023-04-09T20:14:10.138Z,31.50
2023-04-09T20:16:40.928Z,34.27
2023-04-09T20:19:11.573Z,33.90
2023-04-09T20:21:43.483Z,33.92
2023-04-09T20:24:14.092Z,32.88
2023-04-09T20:26:46.918Z,35.28
2023-04-09T20:29:17.583Z,33.02
2023-04-09T20:31:48.099Z,32.63
2023-04-09T20:34:18.734Z,34.95
2023-04-09T20:36:52.253Z,33.83
2023-04-09T20:39:27.736Z,34.48
2023-04-09T20:41:58.436Z,35.93
2023-04-09T20:44:29.455Z,35.33
2023-04-09T20:47:00.055Z,33.90
2023-04-09T20:49:30.974Z,33.75
2023-04-09T20:52:01.526Z,34.15
2023-04-09T20:54:33.608Z,34.83
2023-04-09T20:57:05.704Z,33.78
2023-04-09T20:59:37.217Z,35.83
2023-04-09T21:02:09.127Z,34.15
2023-04-09T21:04:42.725Z,69.15
2023-04-09T21:07:13.735Z,36.30
2023-04-09T21:09:46.134Z,34.05
2023-04-09T21:12:16.650Z,34.08
2023-04-09T21:14:48.302Z,36.42
2023-04-09T21:17:18.863Z,32.53
2023-04-09T21:19:49.366Z,32.00
2023-04-09T21:22:20.774Z,33.10
2023-04-09T21:24:56.073Z,34.90
2023-04-09T21:27:26.632Z,47.30
2023-04-09T21:29:59.898Z,38.48
2023-04-09T21:32:29.558Z,33.53
2023-04-09T21:35:01.908Z,32.77
2023-04-09T21:37:33.666Z,35.17
2023-04-09T21:40:04.549Z,35.15
2023-04-09T21:42:35.677Z,34.63
2023-04-09T21:45:08.275Z,36.70
2023-04-09T21:47:40.770Z,36.93
2023-04-09T21:50:13.658Z,35.98
2023-04-09T21:52:48.353Z,42.15
2023-04-09T21:55:18.827Z,37.03
2023-04-09T21:57:52.597Z,35.33
2023-04-09T22:00:24.772Z,34.50
2023-04-09T22:02:57.140Z,35.80
2023-04-09T22:05:28.624Z,36.77
2023-04-09T22:07:59.190Z,40.65
2023-04-09T22:10:31.447Z,38.98
2023-04-09T22:13:02.434Z,37.08
2023-04-09T22:15:33.636Z,36.85
2023-04-09T22:18:05.571Z,40.53
2023-04-09T22:20:37.156Z,40.75
2023-04-09T22:23:09.868Z,38.48
2023-04-09T22:25:40.383Z,38.00
2023-04-09T22:28:10.909Z,39.50
2023-04-09T22:30:41.532Z,41.28
2023-04-09T22:33:12.129Z,36.17
2023-04-09T22:35:43.473Z,40.17
2023-04-09T22:38:15.064Z,37.70
2023-04-09T22:40:48.402Z,34.70
2023-04-09T22:43:20.598Z,32.53
2023-04-09T22:45:56.116Z,32.70
2023-04-09T22:48:28.808Z,32.45
2023-04-09T22:51:00.468Z,30.75
2023-04-09T22:53:32.076Z,31.85
2023-04-09T22:56:05.131Z,34.08
2023-04-09T22:58:37.644Z,32.95
2023-04-09T23:01:08.818Z,32.88
2023-04-09T23:03:48.629Z,37.90
2023-04-09T23:06:19.303Z,33.63
2023-04-09T23:08:50.499Z,33.05
2023-04-09T23:11:21.786Z,33.83
2023-04-09T23:13:52.439Z,32.53
2023-04-09T23:16:24.692Z,34.30
2023-04-09T23:18:55.338Z,33.75
2023-04-09T23:21:26.702Z,34.55
2023-04-09T23:24:19.788Z,35.43
2023-04-09T23:26:49.460Z,34.63
2023-04-09T23:29:20.449Z,46.57
2023-04-09T23:31:51.446Z,36.68
2023-04-09T23:34:22.207Z,37.25
2023-04-09T23:36:52.931Z,37.20
2023-04-09T23:39:25.067Z,35.23
2023-04-09T23:41:56.194Z,34.83
2023-04-09T23:44:27.329Z,37.53
2023-04-09T23:46:59.334Z,36.90
2023-04-09T23:49:50.041Z,32.98
2023-04-09T23:52:21.817Z,39.03
2023-04-09T23:54:53.263Z,37.97
2023-04-09T23:57:25.540Z,40.93
